createdAt,value
2022-09-22T00:01:32.684Z,5.68
2022-09-22T00:04:07.206Z,8.50
2022-09-22T00:06:38.719Z,10.98
2022-09-22T00:09:09.117Z,5.75
2022-09-22T00:11:39.089Z,7.07
2022-09-22T00:14:10.554Z,9.15
2022-09-22T00:16:40.471Z,5.93
2022-09-22T00:19:11.885Z,9.18
2022-09-22T00:21:39.892Z,10.50
2022-09-22T00:24:08.854Z,8.77
2022-09-22T00:26:37.993Z,8.93
2022-09-22T00:29:09.749Z,7.95
2022-09-22T00:31:39.126Z,6.53
2022-09-22T00:34:09.527Z,9.13
2022-09-22T00:36:37.566Z,6.95
2022-09-22T00:39:05.688Z,6.30
2022-09-22T00:41:36.351Z,7.60
2022-09-22T00:44:37.366Z,5.35
2022-09-22T00:47:15.271Z,8.50
2022-09-22T00:49:49.306Z,8.77
2022-09-22T00:52:23.944Z,7.70
2022-09-22T00:54:54.381Z,7.23
2022-09-22T00:57:25.283Z,6.50
2022-09-22T00:59:54.680Z,8.15
2022-09-22T01:02:23.657Z,9.95
2022-09-22T01:04:53.674Z,8.52
2022-09-22T01:07:25.087Z,8.93
2022-09-22T01:09:55.527Z,8.00
2022-09-22T01:12:26.053Z,9.57
2022-09-22T01:15:17.639Z,9.43
2022-09-22T01:17:55.622Z,8.30
2022-09-22T01:20:57.279Z,9.25
2022-09-22T01:24:09.827Z,8.98
2022-09-22T01:27:06.552Z,6.57
2022-09-22T01:30:07.585Z,6.10
2022-09-22T01:32:43.732Z,10.00
2022-09-22T01:35:20.844Z,12.57
2022-09-22T01:37:59.149Z,11.10
2022-09-22T01:40:32.214Z,10.45
2022-09-22T01:43:08.805Z,9.40
2022-09-22T01:45:40.072Z,9.85
2022-09-22T01:48:12.562Z,8.02
2022-09-22T01:50:45.583Z,8.80
2022-09-22T01:53:17.148Z,9.45
2022-09-22T01:55:49.423Z,9.10
2022-09-22T01:58:20.730Z,11.50
2022-09-22T02:00:55.968Z,8.82
2022-09-22T02:03:30.969Z,7.13
2022-09-22T02:06:04.886Z,8.07
2022-09-22T02:08:39.718Z,9.50
2022-09-22T02:11:12.164Z,9.27
2022-09-22T02:13:40.189Z,10.63
2022-09-22T02:16:10.654Z,9.90
2022-09-22T02:18:45.145Z,12.32
2022-09-22T02:21:13.584Z,11.98
2022-09-22T02:23:42.409Z,8.57
2022-09-22T02:26:11.704Z,8.38
2022-09-22T02:28:44.900Z,10.63
2022-09-22T02:31:20.815Z,7.82
2022-09-22T02:33:49.788Z,9.65
2022-09-22T02:36:39.250Z,8.80
2022-09-22T02:39:11.088Z,8.45
2022-09-22T02:41:48.783Z,10.38
2022-09-22T02:44:21.781Z,8.05
2022-09-22T02:46:57.427Z,7.40
2022-09-22T02:49:27.790Z,6.72
2022-09-22T02:51:56.175Z,10.18
2022-09-22T02:54:24.640Z,7.95
2022-09-22T02:56:52.761Z,8.48
2022-09-22T02:59:21.146Z,8.50
2022-09-22T03:01:49.929Z,7.20
2022-09-22T03:04:19.361Z,8.52
2022-09-22T03:06:47.325Z,10.02
2022-09-22T03:09:17.591Z,11.32
2022-09-22T03:11:45.798Z,10.50
2022-09-22T03:14:13.779Z,8.07
2022-09-22T03:16:41.778Z,8.50
2022-09-22T03:19:09.789Z,7.93
2022-09-22T03:21:39.301Z,9.70
2022-09-22T03:24:07.649Z,8.63
2022-09-22T03:26:35.876Z,9.25
2022-09-22T03:29:04.048Z,11.68
2022-09-22T03:31:32.024Z,7.85
2022-09-22T03:34:00.159Z,9.35
2022-09-22T03:36:28.330Z,9.45
2022-09-22T03:38:57.813Z,16.27
2022-09-22T03:41:25.897Z,7.10
2022-09-22T03:43:54.154Z,6.25
2022-09-22T03:46:22.214Z,7.68
2022-09-22T03:48:50.236Z,5.93
2022-09-22T03:51:19.394Z,5.93
2022-09-22T03:53:47.467Z,10.93
2022-09-22T03:56:17.630Z,8.02
2022-09-22T03:58:45.792Z,10.68
2022-09-22T04:01:13.851Z,8.68
2022-09-22T04:03:41.973Z,11.88
2022-09-22T04:06:10.339Z,7.78
2022-09-22T04:08:38.421Z,8.13
2022-09-22T04:11:08.106Z,10.50
2022-09-22T04:13:37.467Z,10.55
2022-09-22T04:16:06.435Z,9.25
2022-09-22T04:18:34.450Z,8.43
2022-09-22T04:21:02.425Z,7.55
2022-09-22T04:23:30.463Z,10.68
2022-09-22T04:25:58.951Z,9.20
2022-09-22T04:28:26.946Z,6.60
2022-09-22T04:30:56.520Z,10.95
2022-09-22T04:33:25.072Z,9.95
2022-09-22T04:35:53.626Z,11.45
2022-09-22T04:38:21.662Z,10.48
2022-09-22T04:40:50.604Z,12.63
2022-09-22T04:43:18.623Z,11.48
2022-09-22T04:45:48.765Z,9.98
2022-09-22T04:48:18.559Z,7.65
2022-09-22T04:50:48.288Z,10.18
2022-09-22T04:53:17.108Z,10.55
2022-09-22T04:55:45.244Z,9.38
2022-09-22T04:58:13.932Z,9.32
2022-09-22T05:00:41.903Z,8.75
2022-09-22T05:03:10.700Z,6.88
2022-09-22T05:05:40.558Z,9.15
2022-09-22T05:08:08.576Z,10.68
2022-09-22T05:10:36.859Z,10.30
2022-09-22T05:13:05.858Z,13.48
2022-09-22T05:15:34.783Z,8.82
2022-09-22T05:18:02.960Z,10.93
2022-09-22T05:20:31.049Z,10.27
2022-09-22T05:23:00.464Z,16.13
2022-09-22T05:25:28.539Z,13.65
2022-09-22T05:27:57.415Z,10.20
2022-09-22T05:30:27.640Z,10.82
2022-09-22T05:32:55.680Z,9.95
2022-09-22T05:35:26.302Z,7.95
2022-09-22T05:37:55.101Z,7.18
2022-09-22T05:40:26.319Z,8.05
2022-09-22T05:42:55.698Z,8.35
2022-09-22T05:45:24.106Z,8.10
2022-09-22T05:47:53.218Z,7.70
2022-09-22T05:50:23.703Z,14.25
2022-09-22T05:52:52.038Z,8.88
2022-09-22T05:55:20.290Z,13.55
2022-09-22T05:57:49.583Z,11.52
2022-09-22T06:00:17.786Z,15.85
2022-09-22T06:02:45.940Z,13.55
2022-09-22T06:05:17.320Z,16.02
2022-09-22T06:07:46.776Z,17.05
2022-09-22T06:10:14.816Z,15.32
2022-09-22T06:12:42.812Z,15.57
2022-09-22T06:15:12.396Z,21.15
2022-09-22T06:17:40.432Z,17.95
2022-09-22T06:20:09.197Z,14.23
2022-09-22T06:22:37.466Z,16.25
2022-09-22T06:25:09.114Z,11.02
2022-09-22T06:27:37.140Z,13.70
2022-09-22T06:30:06.247Z,16.05
2022-09-22T06:32:39.201Z,19.15
2022-09-22T06:35:07.764Z,14.27
2022-09-22T06:37:38.559Z,22.27
2022-09-22T06:40:08.620Z,13.00
2022-09-22T06:42:36.992Z,15.18
2022-09-22T06:45:05.485Z,16.77
2022-09-22T06:47:35.050Z,23.60
2022-09-22T06:50:05.708Z,18.10
2022-09-22T06:52:36.807Z,17.40
2022-09-22T06:55:10.695Z,17.23
2022-09-22T06:57:40.987Z,16.05
2022-09-22T07:00:10.331Z,21.08
2022-09-22T07:02:39.699Z,24.48
2022-09-22T07:05:08.256Z,22.15
2022-09-22T07:07:36.361Z,17.08
2022-09-22T07:10:04.750Z,22.48
2022-09-22T07:12:33.055Z,20.17
2022-09-22T07:15:01.528Z,13.60
2022-09-22T07:17:32.696Z,17.30
2022-09-22T07:20:02.207Z,16.25
2022-09-22T07:22:30.229Z,17.60
2022-09-22T07:24:58.250Z,28.10
2022-09-22T07:27:26.333Z,30.20
2022-09-22T07:29:55.174Z,19.20
2022-09-22T07:32:23.177Z,18.42
2022-09-22T07:34:52.702Z,14.85
2022-09-22T07:37:23.562Z,15.35
2022-09-22T07:39:51.568Z,18.05
2022-09-22T07:42:20.063Z,17.15
2022-09-22T07:45:05.389Z,15.02
2022-09-22T07:48:02.353Z,15.50
2022-09-22T07:50:30.944Z,19.67
2022-09-22T07:53:00.408Z,18.88
2022-09-22T07:55:28.407Z,19.48
2022-09-22T07:57:57.197Z,15.15
2022-09-22T08:00:26.074Z,15.95
2022-09-22T08:02:55.487Z,13.90
2022-09-22T08:05:24.578Z,16.45
2022-09-22T08:07:53.161Z,11.00
2022-09-22T08:10:22.527Z,16.25
2022-09-22T08:12:55.089Z,11.98
2022-09-22T08:15:26.860Z,9.43
2022-09-22T08:17:58.201Z,13.73
2022-09-22T08:20:28.969Z,13.70
2022-09-22T08:22:58.164Z,10.13
2022-09-22T08:25:27.587Z,14.38
2022-09-22T08:27:55.623Z,9.88
2022-09-22T08:30:23.610Z,8.55
2022-09-22T08:32:51.652Z,12.10
2022-09-22T08:35:19.720Z,14.20
2022-09-22T08:37:50.376Z,8.25
2022-09-22T08:40:23.804Z,8.45
2022-09-22T08:42:55.679Z,10.73
2022-09-22T08:45:31.856Z,9.15
2022-09-22T08:48:21.144Z,13.32
2022-09-22T08:51:08.519Z,8.40
2022-09-22T08:53:43.029Z,10.88
2022-09-22T08:56:21.410Z,7.90
2022-09-22T08:59:03.007Z,9.70
2022-09-22T09:01:46.806Z,9.85
2022-09-22T09:05:03.161Z,9.73
2022-09-22T09:07:43.172Z,9.43
2022-09-22T09:10:27.164Z,11.18
2022-09-22T09:13:02.318Z,5.30
2022-09-22T09:15:45.574Z,6.15
2022-09-22T09:18:17.597Z,5.93
2022-09-22T09:20:47.827Z,10.02
2022-09-22T09:23:19.644Z,6.38
2022-09-22T09:25:51.176Z,4.30
2022-09-22T09:28:27.875Z,5.82
2022-09-22T09:31:07.934Z,7.28
2022-09-22T09:33:44.674Z,6.35
2022-09-22T09:36:17.723Z,5.32
2022-09-22T09:38:49.352Z,8.50
2022-09-22T09:41:21.582Z,5.88
2022-09-22T09:43:54.439Z,5.85
2022-09-22T09:46:40.204Z,5.43
2022-09-22T09:49:11.308Z,5.80
2022-09-22T09:51:42.342Z,5.10
2022-09-22T09:54:16.955Z,4.78
2022-09-22T09:57:07.691Z,5.40
2022-09-22T09:59:54.465Z,5.13
2022-09-22T10:02:28.450Z,3.20
2022-09-22T10:04:58.679Z,4.35
2022-09-22T10:07:28.950Z,4.47
2022-09-22T10:10:17.287Z,3.80
2022-09-22T10:12:45.335Z,4.72
2022-09-22T10:15:25.243Z,2.35
2022-09-22T10:17:54.678Z,3.13
2022-09-22T10:20:26.284Z,1.70
2022-09-22T10:22:55.050Z,2.35
2022-09-22T10:25:25.862Z,3.15
2022-09-22T10:28:02.154Z,3.55
2022-09-22T10:30:32.998Z,2.70
2022-09-22T10:33:23.417Z,2.20
2022-09-22T10:35:56.707Z,3.78
2022-09-22T10:38:27.100Z,2.72
2022-09-22T10:40:57.876Z,5.43
2022-09-22T10:43:41.012Z,2.97
2022-09-22T10:46:20.976Z,2.22
2022-09-22T10:48:56.276Z,2.40
2022-09-22T10:51:38.842Z,4.72
2022-09-22T10:54:23.136Z,3.20
2022-09-22T10:56:55.614Z,4.28
2022-09-22T10:59:47.644Z,1.85
2022-09-22T11:02:41.444Z,3.80
2022-09-22T11:05:56.047Z,2.40
2022-09-22T11:08:42.134Z,6.75
2022-09-22T11:11:33.555Z,3.72
2022-09-22T11:14:16.078Z,1.23
2022-09-22T11:17:02.492Z,5.72
2022-09-22T11:19:47.521Z,2.45
2022-09-22T11:22:48.824Z,2.23
2022-09-22T11:25:26.195Z,3.42
2022-09-22T11:28:09.520Z,2.47
2022-09-22T11:30:45.327Z,3.40
2022-09-22T11:33:34.829Z,1.77
2022-09-22T11:36:18.086Z,1.52
2022-09-22T11:39:20.407Z,2.35
2022-09-22T11:42:00.584Z,2.63
2022-09-22T11:44:36.855Z,3.47
2022-09-22T11:47:30.397Z,4.78
2022-09-22T11:50:24.155Z,3.38
2022-09-22T11:53:24.157Z,2.65
2022-09-22T11:56:09.588Z,2.17
2022-09-22T11:58:40.981Z,1.90
2022-09-22T12:01:13.388Z,2.25
2022-09-22T12:03:46.115Z,1.52
2022-09-22T12:06:17.731Z,2.25
2022-09-22T12:08:49.992Z,3.03
2022-09-22T12:11:20.370Z,1.88
2022-09-22T12:13:51.156Z,3.17
2022-09-22T12:16:24.803Z,1.70
2022-09-22T12:18:58.952Z,1.58
2022-09-22T12:21:43.006Z,2.00
2022-09-22T12:24:12.719Z,2.90
2022-09-22T12:26:44.707Z,3.15
2022-09-22T12:29:26.000Z,1.17
2022-09-22T12:31:56.663Z,2.83
2022-09-22T12:34:27.338Z,4.53
2022-09-22T12:36:59.409Z,5.63
2022-09-22T12:39:30.922Z,3.35
2022-09-22T12:42:02.559Z,1.58
2022-09-22T12:44:33.048Z,4.05
2022-09-22T12:47:04.472Z,3.10
2022-09-22T12:49:32.847Z,1.27
2022-09-22T12:52:01.053Z,3.15
2022-09-22T12:54:52.420Z,1.52
2022-09-22T12:57:49.125Z,3.30
2022-09-22T13:00:30.621Z,3.70
2022-09-22T13:03:01.451Z,1.75
2022-09-22T13:05:46.388Z,2.72
2022-09-22T13:08:20.022Z,2.55
2022-09-22T13:10:56.105Z,1.42
2022-09-22T13:13:45.138Z,2.40
2022-09-22T13:16:34.343Z,2.25
2022-09-22T13:19:02.669Z,2.28
2022-09-22T13:21:32.726Z,3.33
2022-09-22T13:24:02.270Z,1.30
2022-09-22T13:26:32.445Z,3.92
2022-09-22T13:29:04.786Z,4.20
2022-09-22T13:31:41.085Z,3.30
2022-09-22T13:34:20.040Z,2.83
2022-09-22T13:36:49.673Z,2.28
2022-09-22T13:39:20.928Z,2.10
2022-09-22T13:41:53.010Z,2.33
2022-09-22T13:44:28.259Z,1.63
2022-09-22T13:49:32.056Z,1.75
2022-09-22T13:54:32.403Z,2.72
2022-09-22T13:57:01.596Z,2.90
2022-09-22T13:59:39.696Z,3.63
2022-09-22T14:02:10.772Z,1.50
2022-09-22T14:04:39.168Z,2.20
2022-09-22T14:07:11.029Z,2.42
2022-09-22T14:09:40.699Z,1.98
2022-09-22T14:12:11.575Z,3.00
2022-09-22T14:14:40.970Z,2.10
2022-09-22T14:17:17.001Z,2.40
2022-09-22T14:19:49.991Z,5.97
2022-09-22T14:22:21.270Z,2.75
2022-09-22T14:24:52.210Z,2.67
2022-09-22T14:27:25.921Z,2.10
2022-09-22T14:29:57.322Z,2.03
2022-09-22T14:32:34.044Z,2.78
2022-09-22T14:35:06.780Z,1.75
2022-09-22T14:37:39.154Z,2.40
2022-09-22T14:40:15.739Z,2.45
2022-09-22T14:42:44.000Z,3.00
2022-09-22T14:45:23.048Z,3.03
2022-09-22T14:48:17.921Z,3.58
2022-09-22T14:50:49.060Z,1.25
2022-09-22T14:53:22.918Z,2.00
2022-09-22T14:55:54.590Z,2.38
2022-09-22T14:58:24.202Z,4.43
2022-09-22T15:01:13.308Z,4.10
2022-09-22T15:03:43.642Z,1.30
2022-09-22T15:06:14.039Z,2.88
2022-09-22T15:08:45.869Z,3.40
2022-09-22T15:11:16.510Z,1.42
2022-09-22T15:13:45.718Z,1.75
2022-09-22T15:16:37.173Z,2.90
2022-09-22T15:19:05.987Z,1.38
2022-09-22T15:21:40.835Z,3.55
2022-09-22T15:24:12.200Z,3.10
2022-09-22T15:26:41.875Z,0.80
2022-09-22T15:29:12.628Z,1.33
2022-09-22T15:31:42.050Z,1.42
2022-09-22T15:34:10.475Z,4.28
2022-09-22T15:36:45.879Z,2.15
2022-09-22T15:39:20.528Z,3.25
2022-09-22T15:41:49.165Z,1.55
2022-09-22T15:44:17.598Z,1.95
2022-09-22T15:46:51.704Z,1.80
2022-09-22T15:49:23.365Z,4.40
2022-09-22T15:51:51.692Z,1.02
2022-09-22T15:54:21.478Z,4.32
2022-09-22T15:56:52.897Z,2.72
2022-09-22T15:59:22.960Z,2.03
2022-09-22T16:01:55.876Z,1.25
2022-09-22T16:04:24.138Z,3.65
2022-09-22T16:06:56.733Z,3.05
2022-09-22T16:09:24.884Z,2.72
2022-09-22T16:11:53.880Z,3.00
2022-09-22T16:14:23.649Z,4.20
2022-09-22T16:16:53.225Z,3.28
2022-09-22T16:19:21.321Z,2.30
2022-09-22T16:21:54.221Z,2.25
2022-09-22T16:24:23.915Z,2.80
2022-09-22T16:26:52.601Z,1.63
2022-09-22T16:29:20.878Z,4.53
2022-09-22T16:31:49.388Z,4.30
2022-09-22T16:34:21.222Z,2.92
2022-09-22T16:36:49.256Z,2.30
2022-09-22T16:39:17.311Z,2.03
2022-09-22T16:41:47.003Z,4.25
2022-09-22T16:44:16.064Z,5.45
2022-09-22T16:46:44.143Z,8.95
2022-09-22T16:49:15.702Z,7.90
2022-09-22T16:51:48.831Z,1.33
2022-09-22T16:54:18.401Z,5.00
2022-09-22T16:56:47.559Z,3.30
2022-09-22T16:59:16.838Z,6.43
2022-09-22T17:01:45.321Z,3.80
2022-09-22T17:04:15.759Z,4.43
2022-09-22T17:06:45.387Z,2.88
2022-09-22T17:09:15.153Z,4.10
2022-09-22T17:11:45.424Z,3.65
2022-09-22T17:14:15.464Z,1.77
2022-09-22T17:16:44.569Z,6.22
2022-09-22T17:19:18.428Z,6.90
2022-09-22T17:21:49.548Z,4.55
2022-09-22T17:24:17.626Z,3.67
2022-09-22T17:26:47.383Z,6.78
2022-09-22T17:29:16.976Z,2.78
2022-09-22T17:31:47.279Z,2.22
2022-09-22T17:34:15.682Z,3.40
2022-09-22T17:36:43.801Z,4.80
2022-09-22T17:39:13.494Z,2.65
2022-09-22T17:41:45.557Z,6.00
2022-09-22T17:44:14.672Z,13.27
2022-09-22T17:47:03.043Z,11.48
2022-09-22T17:49:49.116Z,11.70
2022-09-22T17:52:35.634Z,9.75
2022-09-22T17:55:11.980Z,11.25
2022-09-22T17:57:41.099Z,12.90
2022-09-22T18:00:11.104Z,12.68
2022-09-22T18:02:39.834Z,13.05
2022-09-22T18:05:09.078Z,14.48
2022-09-22T18:07:38.302Z,12.57
2022-09-22T18:10:08.673Z,11.68
2022-09-22T18:12:36.676Z,12.68
2022-09-22T18:15:05.919Z,13.65
2022-09-22T18:17:40.191Z,12.52
2022-09-22T18:20:10.005Z,26.30
2022-09-22T18:22:38.205Z,31.25
2022-09-22T18:25:10.444Z,35.47
2022-09-22T18:27:39.885Z,35.05
2022-09-22T18:30:10.652Z,45.75
2022-09-22T18:32:41.010Z,41.70
2022-09-22T18:35:09.676Z,46.45
2022-09-22T18:37:37.688Z,44.80
2022-09-22T18:40:07.912Z,33.67
2022-09-22T18:42:36.708Z,26.65
2022-09-22T18:45:05.446Z,26.20
2022-09-22T18:47:39.647Z,30.92
2022-09-22T18:50:08.553Z,22.50
2022-09-22T18:52:37.326Z,21.02
2022-09-22T18:55:09.443Z,22.90
2022-09-22T18:57:37.729Z,18.05
2022-09-22T19:00:13.881Z,18.40
2022-09-22T19:02:42.003Z,17.05
2022-09-22T19:05:12.806Z,14.43
2022-09-22T19:07:43.965Z,16.52
2022-09-22T19:10:16.076Z,12.63
2022-09-22T19:12:44.106Z,15.18
2022-09-22T19:15:15.336Z,10.52
2022-09-22T19:17:44.988Z,10.90
2022-09-22T19:20:20.960Z,9.35
2022-09-22T19:22:50.449Z,7.55
2022-09-22T19:25:21.542Z,6.35
2022-09-22T19:27:50.172Z,8.52
2022-09-22T19:30:22.494Z,10.32
2022-09-22T19:32:52.149Z,9.15
2022-09-22T19:35:20.319Z,11.05
2022-09-22T19:37:48.637Z,6.28
2022-09-22T19:40:18.902Z,10.07
2022-09-22T19:42:49.865Z,7.85
2022-09-22T19:45:19.100Z,10.43
2022-09-22T19:47:47.924Z,7.38
2022-09-22T19:50:16.298Z,7.65
2022-09-22T19:52:44.423Z,11.20
2022-09-22T19:55:12.917Z,11.70
2022-09-22T19:57:41.910Z,8.05
2022-09-22T20:00:17.223Z,6.82
2022-09-22T20:02:45.395Z,11.35
2022-09-22T20:05:21.848Z,9.68
2022-09-22T20:07:50.043Z,7.45
2022-09-22T20:10:19.261Z,8.15
2022-09-22T20:12:47.634Z,7.43
2022-09-22T20:15:17.294Z,11.18
2022-09-22T20:17:46.677Z,9.88
2022-09-22T20:20:16.021Z,11.15
2022-09-22T20:22:45.587Z,9.18
2022-09-22T20:25:22.310Z,7.50
2022-09-22T20:27:50.343Z,10.40
2022-09-22T20:30:20.244Z,7.45
2022-09-22T20:32:48.280Z,7.70
2022-09-22T20:35:18.032Z,10.32
2022-09-22T20:37:46.445Z,6.53
2022-09-22T20:40:18.613Z,8.07
2022-09-22T20:42:47.022Z,8.85
2022-09-22T20:45:15.554Z,8.90
2022-09-22T20:47:44.927Z,10.20
2022-09-22T20:50:13.356Z,9.55
2022-09-22T20:52:42.484Z,10.88
2022-09-22T20:55:11.595Z,12.82
2022-09-22T20:57:40.333Z,10.25
2022-09-22T21:00:09.871Z,9.63
2022-09-22T21:02:38.923Z,8.80
2022-09-22T21:05:09.010Z,9.30
2022-09-22T21:07:37.056Z,11.18
2022-09-22T21:10:22.753Z,8.52
2022-09-22T21:12:55.005Z,6.90
2022-09-22T21:15:23.162Z,9.13
2022-09-22T21:17:52.870Z,14.05
2022-09-22T21:20:22.641Z,14.18
2022-09-22T21:22:51.015Z,12.88
2022-09-22T21:25:20.168Z,14.40
2022-09-22T21:27:48.220Z,13.95
2022-09-22T21:30:16.315Z,18.75
2022-09-22T21:32:44.666Z,16.35
2022-09-22T21:35:16.756Z,22.88
2022-09-22T21:37:46.645Z,16.98
2022-09-22T21:40:14.702Z,19.65
2022-09-22T21:42:42.758Z,22.88
2022-09-22T21:45:12.956Z,16.23
2022-09-22T21:47:41.019Z,14.07
2022-09-22T21:50:10.096Z,17.33
2022-09-22T21:52:38.609Z,15.35
2022-09-22T21:55:09.249Z,13.27
2022-09-22T21:57:37.236Z,15.23
2022-09-22T22:00:07.447Z,13.13
2022-09-22T22:02:55.751Z,15.57
2022-09-22T22:05:24.075Z,18.23
2022-09-22T22:07:52.559Z,15.52
2022-09-22T22:10:22.228Z,13.68
2022-09-22T22:12:50.560Z,15.32
2022-09-22T22:15:18.887Z,13.95
2022-09-22T22:17:47.157Z,15.48
2022-09-22T22:20:16.102Z,11.52
2022-09-22T22:22:44.405Z,15.95
2022-09-22T22:25:17.284Z,11.40
2022-09-22T22:27:47.067Z,12.38
2022-09-22T22:30:15.402Z,12.27
2022-09-22T22:32:43.719Z,13.40
2022-09-22T22:35:12.739Z,15.98
2022-09-22T22:37:43.048Z,11.98
2022-09-22T22:40:11.526Z,11.90
2022-09-22T22:42:39.895Z,11.82
2022-09-22T22:45:11.186Z,10.82
2022-09-22T22:47:39.519Z,15.50
2022-09-22T22:50:08.479Z,11.18
2022-09-22T22:52:39.969Z,16.15
2022-09-22T22:55:09.436Z,13.60
2022-09-22T22:57:37.468Z,10.00
2022-09-22T23:00:06.365Z,13.65
2022-09-22T23:02:35.663Z,12.43
2022-09-22T23:05:04.184Z,14.18
2022-09-22T23:07:32.616Z,11.30
2022-09-22T23:10:07.077Z,12.73
2022-09-22T23:12:35.570Z,10.82
2022-09-22T23:15:03.756Z,19.10
2022-09-22T23:17:32.363Z,11.52
2022-09-22T23:20:01.869Z,11.02
2022-09-22T23:22:30.597Z,22.35
2022-09-22T23:24:59.029Z,9.82
2022-09-22T23:27:28.436Z,8.30
2022-09-22T23:29:57.219Z,11.52
2022-09-22T23:32:25.623Z,9.88
2022-09-22T23:34:53.831Z,9.60
2022-09-22T23:37:24.922Z,11.27
2022-09-22T23:39:53.294Z,8.32
2022-09-22T23:42:21.395Z,7.80
2022-09-22T23:44:49.424Z,9.15
2022-09-22T23:47:17.497Z,9.45
2022-09-22T23:49:45.734Z,9.65
2022-09-22T23:52:13.747Z,9.02
2022-09-22T23:54:44.722Z,11.30
2022-09-22T23:57:12.731Z,9.50
2022-09-22T23:59:40.746Z,9.07
